^^
Station Historical Data
Daily Summary for October 12, 2017 Units:  Both    English   Metric
« Previous Day
Next Day »
Daily Weekly Monthly Yearly Custom
  High: Low: Average:
Temperature: 78.8 °F /  26 °C 58.5 °F /  14.7 °C 65.6 °F /  18.7 °C
Dew Point: 65.5 °F /  18.6 °C 51.1 °F /  10.6 °C 58.4 °F /  14.7 °C
Humidity: 99% 39% 81%
Wind Speed: 2.9mph /  4.7km/h - 0mph /  0km/h
Wind Gust: 3.0mph /  4.8km/h - -
Wind- - SSE
Pressure: 30.23 in /  1023.6 hPa 30.12 in /  1019.9 hPa -
Precipitation: 0.00 in /  0 mm    
Historical Graphs
 
 
Tabular Data for October 12, 2017
Time Temperature Dew Point Pressure Wind Wind Speed Wind Gust Humidity Rainfall Rate (Hourly)
00:02 63.0 °F /  17.2 °C 61.9 °F /  16.6 °C 30.15in /  1020.9hPa Calm     96% 0.00in /  0mm
00:12 62.4 °F /  16.9 °C 61.5 °F /  16.4 °C 30.15in /  1020.9hPa Calm     97% 0.00in /  0mm
00:17 62.4 °F /  16.9 °C 61.5 °F /  16.4 °C 30.15in /  1020.9hPa Calm     97% 0.00in /  0mm
00:22 62.4 °F /  16.9 °C 61.5 °F /  16.4 °C 30.15in /  1020.9hPa Calm     97% 0.00in /  0mm
00:27 62.2 °F /  16.8 °C 61.3 °F /  16.3 °C 30.15in /  1020.9hPa Calm     97% 0.00in /  0mm
00:29 62.2 °F /  16.8 °C 61.3 °F /  16.3 °C 30.15in /  1020.9hPa Calm     97% 0.00in /  0mm
00:34 62.1 °F /  16.7 °C 61.2 °F /  16.2 °C 30.15in /  1020.9hPa Calm     97% 0.00in /  0mm
00:39 62.1 °F /  16.7 °C 61.2 °F /  16.2 °C 30.15in /  1020.9hPa Calm     97% 0.00in /  0mm
00:44 61.9 °F /  16.6 °C 61.0 °F /  16.1 °C 30.15in /  1020.9hPa Calm     97% 0.00in /  0mm
00:49 61.9 °F /  16.6 °C 61.0 °F /  16.1 °C 30.14in /  1020.5hPa Calm     97% 0.00in /  0mm
00:54 61.9 °F /  16.6 °C 61.0 °F /  16.1 °C 30.14in /  1020.5hPa Calm     97% 0.00in /  0mm
00:59 61.9 °F /  16.6 °C 61.0 °F /  16.1 °C 30.14in /  1020.5hPa Calm     97% 0.00in /  0mm
01:04 61.7 °F /  16.5 °C 60.8 °F /  16 °C 30.14in /  1020.5hPa Calm     97% 0.00in /  0mm
01:09 61.7 °F /  16.5 °C 60.8 °F /  16 °C 30.14in /  1020.5hPa Calm     97% 0.00in /  0mm
01:14 61.7 °F /  16.5 °C 61.2 °F /  16.2 °C 30.14in /  1020.5hPa Calm     98% 0.00in /  0mm
01:19 61.7 °F /  16.5 °C 60.8 °F /  16 °C 30.14in /  1020.5hPa Calm     97% 0.00in /  0mm
01:24 61.5 °F /  16.4 °C 60.6 °F /  15.9 °C 30.14in /  1020.5hPa Calm     97% 0.00in /  0mm
01:29 61.3 °F /  16.3 °C 60.4 °F /  15.8 °C 30.14in /  1020.5hPa Calm     97% 0.00in /  0mm
01:34 61.3 °F /  16.3 °C 60.8 °F /  16 °C 30.14in /  1020.5hPa Calm     98% 0.00in /  0mm
01:39 61.3 °F /  16.3 °C 60.8 °F /  16 °C 30.14in /  1020.5hPa Calm     98% 0.00in /  0mm
01:44 61.3 °F /  16.3 °C 60.8 °F /  16 °C 30.14in /  1020.5hPa Calm     98% 0.00in /  0mm
01:49 61.2 °F /  16.2 °C 60.6 °F /  15.9 °C 30.14in /  1020.5hPa Calm     98% 0.00in /  0mm
01:54 61.0 °F /  16.1 °C 60.1 °F /  15.6 °C 30.14in /  1020.5hPa Calm     97% 0.00in /  0mm
01:59 60.8 °F /  16 °C 59.9 °F /  15.5 °C 30.14in /  1020.5hPa Calm     97% 0.00in /  0mm
02:05 60.8 °F /  16 °C 60.3 °F /  15.7 °C 30.14in /  1020.5hPa Calm     98% 0.00in /  0mm
02:10 60.6 °F /  15.9 °C 60.1 °F /  15.6 °C 30.14in /  1020.5hPa Calm     98% 0.00in /  0mm
02:15 60.6 °F /  15.9 °C 60.1 °F /  15.6 °C 30.14in /  1020.5hPa Calm     98% 0.00in /  0mm
02:20 60.4 °F /  15.8 °C 59.9 °F /  15.5 °C 30.14in /  1020.5hPa Calm     98% 0.00in /  0mm
02:25 60.4 °F /  15.8 °C 59.9 °F /  15.5 °C 30.14in /  1020.5hPa Calm     98% 0.00in /  0mm
02:35 60.4 °F /  15.8 °C 59.9 °F /  15.5 °C 30.14in /  1020.5hPa Calm     98% 0.00in /  0mm
02:40 60.4 °F /  15.8 °C 59.9 °F /  15.5 °C 30.14in /  1020.5hPa Calm     98% 0.00in /  0mm
02:45 60.4 °F /  15.8 °C 59.9 °F /  15.5 °C 30.14in /  1020.5hPa Calm     98% 0.00in /  0mm
02:50 60.1 °F /  15.6 °C 59.5 °F /  15.3 °C 30.14in /  1020.5hPa Calm     98% 0.00in /  0mm
02:55 59.7 °F /  15.4 °C 59.2 °F /  15.1 °C 30.14in /  1020.5hPa Calm     98% 0.00in /  0mm
03:00 59.5 °F /  15.3 °C 59.0 °F /  15 °C 30.13in /  1020.2hPa Calm     98% 0.00in /  0mm
03:05 59.5 °F /  15.3 °C 59.0 °F /  15 °C 30.14in /  1020.5hPa Calm     98% 0.00in /  0mm
03:10 59.7 °F /  15.4 °C 59.2 °F /  15.1 °C 30.13in /  1020.2hPa Calm     98% 0.00in /  0mm
03:21 59.5 °F /  15.3 °C 59.0 °F /  15 °C 30.13in /  1020.2hPa Calm     98% 0.00in /  0mm
03:26 59.4 °F /  15.2 °C 58.8 °F /  14.9 °C 30.13in /  1020.2hPa Calm     98% 0.00in /  0mm
03:31 59.4 °F /  15.2 °C 58.8 °F /  14.9 °C 30.13in /  1020.2hPa Calm     98% 0.00in /  0mm
03:36 59.2 °F /  15.1 °C 58.6 °F /  14.8 °C 30.13in /  1020.2hPa Calm     98% 0.00in /  0mm
03:41 59.0 °F /  15 °C 58.5 °F /  14.7 °C 30.14in /  1020.5hPa Calm     98% 0.00in /  0mm
03:46 59.0 °F /  15 °C 58.5 °F /  14.7 °C 30.14in /  1020.5hPa Calm     98% 0.00in /  0mm
03:51 59.0 °F /  15 °C 58.5 °F /  14.7 °C 30.14in /  1020.5hPa Calm     98% 0.00in /  0mm
03:56 58.8 °F /  14.9 °C 58.3 °F /  14.6 °C 30.13in /  1020.2hPa Calm     98% 0.00in /  0mm
04:01 58.8 °F /  14.9 °C 58.3 °F /  14.6 °C 30.13in /  1020.2hPa Calm     98% 0.00in /  0mm
04:06 58.8 °F /  14.9 °C 58.3 °F /  14.6 °C 30.13in /  1020.2hPa Calm     98% 0.00in /  0mm
04:11 58.6 °F /  14.8 °C 58.1 °F /  14.5 °C 30.13in /  1020.2hPa Calm     98% 0.00in /  0mm
04:16 58.6 °F /  14.8 °C 58.1 °F /  14.5 °C 30.13in /  1020.2hPa Calm     98% 0.00in /  0mm
04:21 58.5 °F /  14.7 °C 57.9 °F /  14.4 °C 30.13in /  1020.2hPa Calm     98% 0.00in /  0mm
04:26 58.5 °F /  14.7 °C 58.1 °F /  14.5 °C 30.13in /  1020.2hPa Calm     99% 0.00in /  0mm
04:31 58.8 °F /  14.9 °C 58.5 °F /  14.7 °C 30.13in /  1020.2hPa Calm     99% 0.00in /  0mm
04:36 58.8 °F /  14.9 °C 58.5 °F /  14.7 °C 30.13in /  1020.2hPa Calm     99% 0.00in /  0mm
04:41 59.0 °F /  15 °C 58.6 °F /  14.8 °C 30.13in /  1020.2hPa Calm     99% 0.00in /  0mm
04:46 59.2 °F /  15.1 °C 58.8 °F /  14.9 °C 30.13in /  1020.2hPa Calm     99% 0.00in /  0mm
04:51 59.4 °F /  15.2 °C 59.0 °F /  15 °C 30.14in /  1020.5hPa Calm     99% 0.00in /  0mm
04:56 59.4 °F /  15.2 °C 59.0 °F /  15 °C 30.14in /  1020.5hPa Calm     99% 0.00in /  0mm
05:01 59.4 °F /  15.2 °C 59.0 °F /  15 °C 30.14in /  1020.5hPa Calm     99% 0.00in /  0mm
05:06 59.4 °F /  15.2 °C 59.0 °F /  15 °C 30.14in /  1020.5hPa Calm     99% 0.00in /  0mm
05:12 59.4 °F /  15.2 °C 59.0 °F /  15 °C 30.14in /  1020.5hPa Calm     99% 0.00in /  0mm
05:17 59.4 °F /  15.2 °C 59.0 °F /  15 °C 30.14in /  1020.5hPa Calm     99% 0.00in /  0mm
05:22 59.4 °F /  15.2 °C 59.0 °F /  15 °C 30.14in /  1020.5hPa Calm     99% 0.00in /  0mm
05:24 59.4 °F /  15.2 °C 59.0 °F /  15 °C 30.14in /  1020.5hPa Calm     99% 0.00in /  0mm
05:29 59.5 °F /  15.3 °C 59.2 °F /  15.1 °C 30.14in /  1020.5hPa Calm     99% 0.00in /  0mm
05:34 59.5 °F /  15.3 °C 59.2 °F /  15.1 °C 30.14in /  1020.5hPa Calm     99% 0.00in /  0mm
05:39 59.5 °F /  15.3 °C 59.2 °F /  15.1 °C 30.14in /  1020.5hPa Calm     99% 0.00in /  0mm
05:44 59.5 °F /  15.3 °C 59.2 °F /  15.1 °C 30.14in /  1020.5hPa Calm     99% 0.00in /  0mm
05:49 59.4 °F /  15.2 °C 59.0 °F /  15 °C 30.15in /  1020.9hPa Calm     99% 0.00in /  0mm
05:54 59.4 °F /  15.2 °C 59.0 °F /  15 °C 30.15in /  1020.9hPa Calm     99% 0.00in /  0mm
05:59 59.4 °F /  15.2 °C 59.0 °F /  15 °C 30.15in /  1020.9hPa Calm     99% 0.00in /  0mm
06:04 59.4 °F /  15.2 °C 59.0 °F /  15 °C 30.15in /  1020.9hPa Calm     99% 0.00in /  0mm
06:09 59.4 °F /  15.2 °C 59.0 °F /  15 °C 30.15in /  1020.9hPa Calm     99% 0.00in /  0mm
06:14 59.2 °F /  15.1 °C 58.8 °F /  14.9 °C 30.15in /  1020.9hPa Calm     99% 0.00in /  0mm
06:20 59.2 °F /  15.1 °C 58.8 °F /  14.9 °C 30.15in /  1020.9hPa Calm     99% 0.00in /  0mm
06:25 59.2 °F /  15.1 °C 58.8 °F /  14.9 °C 30.15in /  1020.9hPa Calm     99% 0.00in /  0mm
06:30 59.2 °F /  15.1 °C 58.8 °F /  14.9 °C 30.15in /  1020.9hPa Calm     99% 0.00in /  0mm
06:35 59.2 °F /  15.1 °C 58.8 °F /  14.9 °C 30.15in /  1020.9hPa Calm     99% 0.00in /  0mm
06:40 59.2 °F /  15.1 °C 58.8 °F /  14.9 °C 30.16in /  1021.2hPa Calm     99% 0.00in /  0mm
06:45 59.2 °F /  15.1 °C 58.8 °F /  14.9 °C 30.16in /  1021.2hPa Calm     99% 0.00in /  0mm
06:50 59.2 °F /  15.1 °C 58.8 °F /  14.9 °C 30.16in /  1021.2hPa Calm     99% 0.00in /  0mm
06:55 59.2 °F /  15.1 °C 58.8 °F /  14.9 °C 30.15in /  1020.9hPa Calm     99% 0.00in /  0mm
07:00 59.2 °F /  15.1 °C 58.8 °F /  14.9 °C 30.16in /  1021.2hPa Calm     99% 0.00in /  0mm
07:05 59.2 °F /  15.1 °C 58.8 °F /  14.9 °C 30.16in /  1021.2hPa Calm     99% 0.00in /  0mm
07:10 59.2 °F /  15.1 °C 58.8 °F /  14.9 °C 30.16in /  1021.2hPa Calm     99% 0.00in /  0mm
07:15 59.2 °F /  15.1 °C 58.8 °F /  14.9 °C 30.16in /  1021.2hPa Calm     99% 0.00in /  0mm
07:20 59.2 °F /  15.1 °C 58.8 °F /  14.9 °C 30.16in /  1021.2hPa Calm     99% 0.00in /  0mm
07:25 59.2 °F /  15.1 °C 58.8 °F /  14.9 °C 30.16in /  1021.2hPa Calm     99% 0.00in /  0mm
07:30 59.2 °F /  15.1 °C 58.8 °F /  14.9 °C 30.16in /  1021.2hPa Calm     99% 0.00in /  0mm
07:35 59.2 °F /  15.1 °C 58.6 °F /  14.8 °C 30.16in /  1021.2hPa Calm     98% 0.00in /  0mm
07:40 59.2 °F /  15.1 °C 58.6 °F /  14.8 °C 30.17in /  1021.6hPa Calm     98% 0.00in /  0mm
07:50 59.2 °F /  15.1 °C 58.6 °F /  14.8 °C 30.17in /  1021.6hPa Calm     98% 0.00in /  0mm
07:55 59.2 °F /  15.1 °C 58.6 °F /  14.8 °C 30.17in /  1021.6hPa Calm     98% 0.00in /  0mm
08:00 59.2 °F /  15.1 °C 58.6 °F /  14.8 °C 30.17in /  1021.6hPa Calm     98% 0.00in /  0mm
08:05 59.4 °F /  15.2 °C 58.8 °F /  14.9 °C 30.17in /  1021.6hPa Calm     98% 0.00in /  0mm
08:10 59.5 °F /  15.3 °C 59.0 °F /  15 °C 30.17in /  1021.6hPa Calm     98% 0.00in /  0mm
08:16 59.5 °F /  15.3 °C 59.0 °F /  15 °C 30.17in /  1021.6hPa Calm     98% 0.00in /  0mm
08:21 59.5 °F /  15.3 °C 59.0 °F /  15 °C 30.17in /  1021.6hPa Calm     98% 0.00in /  0mm
08:26 59.5 °F /  15.3 °C 59.0 °F /  15 °C 30.18in /  1021.9hPa Calm     98% 0.00in /  0mm
08:31 59.5 °F /  15.3 °C 59.0 °F /  15 °C 30.18in /  1021.9hPa Calm     98% 0.00in /  0mm
08:36 59.7 °F /  15.4 °C 59.2 °F /  15.1 °C 30.18in /  1021.9hPa Calm     98% 0.00in /  0mm
08:41 59.7 °F /  15.4 °C 59.2 °F /  15.1 °C 30.19in /  1022.2hPa Calm     98% 0.00in /  0mm
08:46 59.9 °F /  15.5 °C 59.4 °F /  15.2 °C 30.19in /  1022.2hPa Calm     98% 0.00in /  0mm
08:51 60.1 °F /  15.6 °C 59.5 °F /  15.3 °C 30.19in /  1022.2hPa Calm     98% 0.00in /  0mm
08:56 60.3 °F /  15.7 °C 59.7 °F /  15.4 °C 30.19in /  1022.2hPa Calm     98% 0.00in /  0mm
09:06 60.6 °F /  15.9 °C 60.1 °F /  15.6 °C 30.19in /  1022.2hPa Calm     98% 0.00in /  0mm
09:11 60.8 °F /  16 °C 60.3 °F /  15.7 °C 30.19in /  1022.2hPa Calm     98% 0.00in /  0mm
09:16 61.0 °F /  16.1 °C 60.1 °F /  15.6 °C 30.19in /  1022.2hPa Calm     97% 0.00in /  0mm
09:21 61.0 °F /  16.1 °C 60.1 °F /  15.6 °C 30.19in /  1022.2hPa Calm     97% 0.00in /  0mm
09:26 61.2 °F /  16.2 °C 60.3 °F /  15.7 °C 30.19in /  1022.2hPa Calm     97% 0.00in /  0mm
09:31 61.3 °F /  16.3 °C 60.4 °F /  15.8 °C 30.19in /  1022.2hPa Calm     97% 0.00in /  0mm
09:36 61.5 °F /  16.4 °C 60.6 °F /  15.9 °C 30.19in /  1022.2hPa Calm     97% 0.00in /  0mm
09:41 61.9 °F /  16.6 °C 61.0 °F /  16.1 °C 30.19in /  1022.2hPa Calm     97% 0.00in /  0mm
09:46 62.1 °F /  16.7 °C 61.0 °F /  16.1 °C 30.19in /  1022.2hPa Calm     96% 0.00in /  0mm
09:51 62.2 °F /  16.8 °C 61.2 °F /  16.2 °C 30.19in /  1022.2hPa Calm     96% 0.00in /  0mm
09:56 62.6 °F /  17 °C 61.5 °F /  16.4 °C 30.19in /  1022.2hPa Calm     96% 0.00in /  0mm
10:01 62.8 °F /  17.1 °C 61.3 °F /  16.3 °C 30.19in /  1022.2hPa Calm     95% 0.00in /  0mm
10:06 62.8 °F /  17.1 °C 61.3 °F /  16.3 °C 30.19in /  1022.2hPa Calm     95% 0.00in /  0mm
10:11 63.0 °F /  17.2 °C 61.5 °F /  16.4 °C 30.19in /  1022.2hPa Calm     95% 0.00in /  0mm
10:16 63.1 °F /  17.3 °C 61.7 °F /  16.5 °C 30.19in /  1022.2hPa Calm     95% 0.00in /  0mm
10:21 63.3 °F /  17.4 °C 61.9 °F /  16.6 °C 30.19in /  1022.2hPa Calm     95% 0.00in /  0mm
10:26 63.5 °F /  17.5 °C 62.1 °F /  16.7 °C 30.19in /  1022.2hPa Calm     95% 0.00in /  0mm
10:31 63.5 °F /  17.5 °C 61.7 °F /  16.5 °C 30.19in /  1022.2hPa Calm     94% 0.00in /  0mm
10:36 63.7 °F /  17.6 °C 61.9 °F /  16.6 °C 30.19in /  1022.2hPa Calm     94% 0.00in /  0mm
10:41 64.0 °F /  17.8 °C 62.2 °F /  16.8 °C 30.19in /  1022.2hPa Calm     94% 0.00in /  0mm
10:46 64.2 °F /  17.9 °C 62.4 °F /  16.9 °C 30.20in /  1022.6hPa Calm     94% 0.00in /  0mm
10:51 64.6 °F /  18.1 °C 62.4 °F /  16.9 °C 30.20in /  1022.6hPa Calm     93% 0.00in /  0mm
10:56 64.8 °F /  18.2 °C 62.6 °F /  17 °C 30.20in /  1022.6hPa Calm     93% 0.00in /  0mm
11:01 64.9 °F /  18.3 °C 62.8 °F /  17.1 °C 30.20in /  1022.6hPa Calm     93% 0.00in /  0mm
11:06 64.8 °F /  18.2 °C 62.6 °F /  17 °C 30.20in /  1022.6hPa Calm     93% 0.00in /  0mm
11:12 64.9 °F /  18.3 °C 63.1 °F /  17.3 °C 30.19in /  1022.2hPa Calm     94% 0.00in /  0mm
11:17 65.3 °F /  18.5 °C 63.1 °F /  17.3 °C 30.19in /  1022.2hPa Calm     93% 0.00in /  0mm
11:22 65.1 °F /  18.4 °C 62.8 °F /  17.1 °C 30.19in /  1022.2hPa Calm     92% 0.00in /  0mm
11:27 65.5 °F /  18.6 °C 63.1 °F /  17.3 °C 30.19in /  1022.2hPa Calm     92% 0.00in /  0mm
11:32 65.7 °F /  18.7 °C 63.3 °F /  17.4 °C 30.19in /  1022.2hPa Calm     92% 0.00in /  0mm
11:37 65.8 °F /  18.8 °C 63.1 °F /  17.3 °C 30.19in /  1022.2hPa Calm     91% 0.00in /  0mm
11:42 66.0 °F /  18.9 °C 63.3 °F /  17.4 °C 30.19in /  1022.2hPa Calm     91% 0.00in /  0mm
11:47 66.4 °F /  19.1 °C 63.7 °F /  17.6 °C 30.19in /  1022.2hPa Calm     91% 0.00in /  0mm
11:52 66.0 °F /  18.9 °C 63.3 °F /  17.4 °C 30.19in /  1022.2hPa Calm     91% 0.00in /  0mm
11:57 66.2 °F /  19 °C 63.1 °F /  17.3 °C 30.19in /  1022.2hPa Calm     90% 0.00in /  0mm
12:02 66.7 °F /  19.3 °C 64.0 °F /  17.8 °C 30.19in /  1022.2hPa Calm     91% 0.00in /  0mm
12:07 67.3 °F /  19.6 °C 64.2 °F /  17.9 °C 30.19in /  1022.2hPa Calm     90% 0.00in /  0mm
12:12 67.6 °F /  19.8 °C 64.6 °F /  18.1 °C 30.19in /  1022.2hPa Calm     90% 0.00in /  0mm
12:17 67.8 °F /  19.9 °C 64.8 °F /  18.2 °C 30.19in /  1022.2hPa Calm     90% 0.00in /  0mm
12:22 68.2 °F /  20.1 °C 64.4 °F /  18 °C 30.18in /  1021.9hPa Calm     88% 0.00in /  0mm
12:28 68.4 °F /  20.2 °C 64.4 °F /  18 °C 30.18in /  1021.9hPa Calm     87% 0.00in /  0mm
12:33 68.5 °F /  20.3 °C 64.8 °F /  18.2 °C 30.18in /  1021.9hPa Calm     88% 0.00in /  0mm
12:38 68.7 °F /  20.4 °C 64.8 °F /  18.2 °C 30.18in /  1021.9hPa Calm     87% 0.00in /  0mm
12:43 68.9 °F /  20.5 °C 64.9 °F /  18.3 °C 30.17in /  1021.6hPa Calm     87% 0.00in /  0mm
12:48 69.1 °F /  20.6 °C 64.8 °F /  18.2 °C 30.17in /  1021.6hPa Calm     86% 0.00in /  0mm
12:53 69.4 °F /  20.8 °C 65.5 °F /  18.6 °C 30.17in /  1021.6hPa Calm     87% 0.00in /  0mm
12:58 70.0 °F /  21.1 °C 65.3 °F /  18.5 °C 30.17in /  1021.6hPa Calm     85% 0.00in /  0mm
13:03 70.3 °F /  21.3 °C 65.3 °F /  18.5 °C 30.16in /  1021.2hPa Calm     84% 0.00in /  0mm
13:13 70.7 °F /  21.5 °C 64.2 °F /  17.9 °C 30.16in /  1021.2hPa Calm     80% 0.00in /  0mm
13:18 71.1 °F /  21.7 °C 61.9 °F /  16.6 °C 30.16in /  1021.2hPa Calm     73% 0.00in /  0mm
13:23 71.4 °F /  21.9 °C 61.5 °F /  16.4 °C 30.16in /  1021.2hPa Calm     71% 0.00in /  0mm
13:28 71.8 °F /  22.1 °C 58.5 °F /  14.7 °C 30.15in /  1020.9hPa Calm     63% 0.00in /  0mm
13:33 72.5 °F /  22.5 °C 60.1 °F /  15.6 °C 30.15in /  1020.9hPa Calm     65% 0.00in /  0mm
13:38 73.0 °F /  22.8 °C 59.2 °F /  15.1 °C 30.15in /  1020.9hPa Calm     62% 0.00in /  0mm
13:43 73.4 °F /  23 °C 60.4 °F /  15.8 °C 30.15in /  1020.9hPa Calm     64% 0.00in /  0mm
13:48 73.8 °F /  23.2 °C 56.7 °F /  13.7 °C 30.15in /  1020.9hPa Calm     55% 0.00in /  0mm
13:53 73.9 °F /  23.3 °C 53.1 °F /  11.7 °C 30.14in /  1020.5hPa Calm     48% 0.00in /  0mm
13:58 74.7 °F /  23.7 °C 55.4 °F /  13 °C 30.15in /  1020.9hPa Calm     51% 0.00in /  0mm
14:03 75.0 °F /  23.9 °C 56.1 °F /  13.4 °C 30.14in /  1020.5hPa Calm     52% 0.00in /  0mm
14:08 75.0 °F /  23.9 °C 54.5 °F /  12.5 °C 30.14in /  1020.5hPa Calm     49% 0.00in /  0mm
14:13 75.4 °F /  24.1 °C 57.0 °F /  13.9 °C 30.14in /  1020.5hPa Calm     53% 0.00in /  0mm
14:18 75.6 °F /  24.2 °C 56.1 °F /  13.4 °C 30.14in /  1020.5hPa Calm     51% 0.00in /  0mm
14:23 75.9 °F /  24.4 °C 57.6 °F /  14.2 °C 30.14in /  1020.5hPa Calm     53% 0.00in /  0mm
14:28 75.9 °F /  24.4 °C 55.4 °F /  13 °C 30.14in /  1020.5hPa Calm     49% 0.00in /  0mm
14:34 76.3 °F /  24.6 °C 55.8 °F /  13.2 °C 30.14in /  1020.5hPa Calm     49% 0.00in /  0mm
14:39 76.5 °F /  24.7 °C 57.0 °F /  13.9 °C 30.13in /  1020.2hPa Calm     51% 0.00in /  0mm
14:44 76.5 °F /  24.7 °C 57.0 °F /  13.9 °C 30.13in /  1020.2hPa Calm     51% 0.00in /  0mm
14:49 76.5 °F /  24.7 °C 57.0 °F /  13.9 °C 30.13in /  1020.2hPa Calm     51% 0.00in /  0mm
14:54 76.5 °F /  24.7 °C 55.4 °F /  13 °C 30.13in /  1020.2hPa Calm     48% 0.00in /  0mm
14:59 76.6 °F /  24.8 °C 54.3 °F /  12.4 °C 30.13in /  1020.2hPa Calm     46% 0.00in /  0mm
15:04 76.8 °F /  24.9 °C 55.0 °F /  12.8 °C 30.12in /  1019.9hPa Calm     47% 0.00in /  0mm
15:09 76.8 °F /  24.9 °C 53.2 °F /  11.8 °C 30.13in /  1020.2hPa Calm     44% 0.00in /  0mm
15:14 77.2 °F /  25.1 °C 54.1 °F /  12.3 °C 30.13in /  1020.2hPa Calm     45% 0.00in /  0mm
15:19 77.5 °F /  25.3 °C 54.5 °F /  12.5 °C 30.12in /  1019.9hPa Calm     45% 0.00in /  0mm
15:24 77.5 °F /  25.3 °C 53.2 °F /  11.8 °C 30.12in /  1019.9hPa Calm     43% 0.00in /  0mm
15:29 77.7 °F /  25.4 °C 52.2 °F /  11.2 °C 30.12in /  1019.9hPa Calm     41% 0.00in /  0mm
15:34 78.1 °F /  25.6 °C 53.8 °F /  12.1 °C 30.12in /  1019.9hPa Calm     43% 0.00in /  0mm
15:39 78.4 °F /  25.8 °C 53.4 °F /  11.9 °C 30.12in /  1019.9hPa Calm     42% 0.00in /  0mm
15:44 78.6 °F /  25.9 °C 52.3 °F /  11.3 °C 30.12in /  1019.9hPa Calm     40% 0.00in /  0mm
15:49 78.8 °F /  26 °C 53.8 °F /  12.1 °C 30.12in /  1019.9hPa Calm     42% 0.00in /  0mm
15:54 78.6 °F /  25.9 °C 52.3 °F /  11.3 °C 30.12in /  1019.9hPa Calm     40% 0.00in /  0mm
15:59 78.4 °F /  25.8 °C 52.2 °F /  11.2 °C 30.12in /  1019.9hPa Calm     40% 0.00in /  0mm
16:04 78.6 °F /  25.9 °C 52.3 °F /  11.3 °C 30.12in /  1019.9hPa Calm     40% 0.00in /  0mm
16:09 78.6 °F /  25.9 °C 51.6 °F /  10.9 °C 30.12in /  1019.9hPa Calm     39% 0.00in /  0mm
16:14 78.6 °F /  25.9 °C 52.3 °F /  11.3 °C 30.12in /  1019.9hPa Calm     40% 0.00in /  0mm
16:19 78.4 °F /  25.8 °C 52.2 °F /  11.2 °C 30.12in /  1019.9hPa Calm     40% 0.00in /  0mm
16:21 78.4 °F /  25.8 °C 54.1 °F /  12.3 °C 30.12in /  1019.9hPa Calm     43% 0.00in /  0mm
16:26 78.1 °F /  25.6 °C 53.1 °F /  11.7 °C 30.12in /  1019.9hPa Calm     42% 0.00in /  0mm
16:31 78.1 °F /  25.6 °C 53.8 °F /  12.1 °C 30.12in /  1019.9hPa Calm     43% 0.00in /  0mm
16:36 78.3 °F /  25.7 °C 53.2 °F /  11.8 °C 30.12in /  1019.9hPa Calm     42% 0.00in /  0mm
16:41 78.3 °F /  25.7 °C 52.7 °F /  11.5 °C 30.12in /  1019.9hPa Calm     41% 0.00in /  0mm
16:47 78.3 °F /  25.7 °C 53.2 °F /  11.8 °C 30.12in /  1019.9hPa Calm     42% 0.00in /  0mm
16:52 78.3 °F /  25.7 °C 53.2 °F /  11.8 °C 30.12in /  1019.9hPa Calm     42% 0.00in /  0mm
16:57 78.1 °F /  25.6 °C 51.1 °F /  10.6 °C 30.12in /  1019.9hPa Calm     39% 0.00in /  0mm
17:02 77.9 °F /  25.5 °C 51.6 °F /  10.9 °C 30.12in /  1019.9hPa Calm     40% 0.00in /  0mm
17:07 77.7 °F /  25.4 °C 53.4 °F /  11.9 °C 30.12in /  1019.9hPa Calm     43% 0.00in /  0mm
17:12 77.7 °F /  25.4 °C 52.9 °F /  11.6 °C 30.12in /  1019.9hPa Calm     42% 0.00in /  0mm
17:17 77.5 °F /  25.3 °C 52.7 °F /  11.5 °C 30.12in /  1019.9hPa Calm     42% 0.00in /  0mm
17:22 77.5 °F /  25.3 °C 52.0 °F /  11.1 °C 30.12in /  1019.9hPa Calm     41% 0.00in /  0mm
17:27 77.5 °F /  25.3 °C 52.7 °F /  11.5 °C 30.12in /  1019.9hPa Calm     42% 0.00in /  0mm
17:32 77.5 °F /  25.3 °C 53.2 °F /  11.8 °C 30.12in /  1019.9hPa Calm     43% 0.00in /  0mm
17:37 77.5 °F /  25.3 °C 53.2 °F /  11.8 °C 30.12in /  1019.9hPa Calm     43% 0.00in /  0mm
17:42 77.4 °F /  25.2 °C 53.1 °F /  11.7 °C 30.13in /  1020.2hPa Calm     43% 0.00in /  0mm
17:47 77.4 °F /  25.2 °C 53.8 °F /  12.1 °C 30.13in /  1020.2hPa Calm     44% 0.00in /  0mm
17:52 77.2 °F /  25.1 °C 54.9 °F /  12.7 °C 30.13in /  1020.2hPa Calm     46% 0.00in /  0mm
17:57 77.2 °F /  25.1 °C 53.6 °F /  12 °C 30.13in /  1020.2hPa Calm     44% 0.00in /  0mm
18:02 77.2 °F /  25.1 °C 56.5 °F /  13.6 °C 30.13in /  1020.2hPa Calm     49% 0.00in /  0mm
18:07 76.8 °F /  24.9 °C 57.9 °F /  14.4 °C 30.13in /  1020.2hPa Calm     52% 0.00in /  0mm
18:12 76.5 °F /  24.7 °C 58.6 °F /  14.8 °C 30.13in /  1020.2hPa Calm     54% 0.00in /  0mm
18:17 75.7 °F /  24.3 °C 59.0 °F /  15 °C 30.13in /  1020.2hPa Calm     56% 0.00in /  0mm
18:22 75.2 °F /  24 °C 59.0 °F /  15 °C 30.13in /  1020.2hPa Calm     57% 0.00in /  0mm
18:27 74.7 °F /  23.7 °C 58.8 °F /  14.9 °C 30.13in /  1020.2hPa Calm     58% 0.00in /  0mm
18:32 73.9 °F /  23.3 °C 58.3 °F /  14.6 °C 30.14in /  1020.5hPa Calm     58% 0.00in /  0mm
18:37 73.6 °F /  23.1 °C 58.8 °F /  14.9 °C 30.14in /  1020.5hPa Calm     60% 0.00in /  0mm
18:42 73.0 °F /  22.8 °C 59.2 °F /  15.1 °C 30.14in /  1020.5hPa Calm     62% 0.00in /  0mm
18:47 72.3 °F /  22.4 °C 58.6 °F /  14.8 °C 30.14in /  1020.5hPa Calm     62% 0.00in /  0mm
18:52 71.8 °F /  22.1 °C 58.1 °F /  14.5 °C 30.14in /  1020.5hPa Calm     62% 0.00in /  0mm
18:57 71.1 °F /  21.7 °C 57.7 °F /  14.3 °C 30.15in /  1020.9hPa Calm     63% 0.00in /  0mm
19:02 70.3 °F /  21.3 °C 57.6 °F /  14.2 °C 30.15in /  1020.9hPa Calm     64% 0.00in /  0mm
19:07 70.0 °F /  21.1 °C 57.2 °F /  14 °C 30.15in /  1020.9hPa Calm     64% 0.00in /  0mm
19:12 69.6 °F /  20.9 °C 56.8 °F /  13.8 °C 30.15in /  1020.9hPa Calm     64% 0.00in /  0mm
19:17 69.4 °F /  20.8 °C 56.7 °F /  13.7 °C 30.15in /  1020.9hPa Calm     64% 0.00in /  0mm
19:22 69.6 °F /  20.9 °C 55.9 °F /  13.3 °C 30.16in /  1021.2hPa Calm     62% 0.00in /  0mm
19:28 69.6 °F /  20.9 °C 56.8 °F /  13.8 °C 30.16in /  1021.2hPa Calm     64% 0.00in /  0mm
19:33 69.4 °F /  20.8 °C 56.7 °F /  13.7 °C 30.16in /  1021.2hPa Calm     64% 0.00in /  0mm
19:38 69.4 °F /  20.8 °C 56.7 °F /  13.7 °C 30.16in /  1021.2hPa Calm     64% 0.00in /  0mm
19:43 69.1 °F /  20.6 °C 56.8 °F /  13.8 °C 30.16in /  1021.2hPa Calm     65% 0.00in /  0mm
19:48 68.7 °F /  20.4 °C 56.8 °F /  13.8 °C 30.16in /  1021.2hPa Calm     66% 0.00in /  0mm
19:53 68.4 °F /  20.2 °C 57.0 °F /  13.9 °C 30.16in /  1021.2hPa Calm     67% 0.00in /  0mm
19:58 68.2 °F /  20.1 °C 56.8 °F /  13.8 °C 30.17in /  1021.6hPa Calm     67% 0.00in /  0mm
20:03 67.8 °F /  19.9 °C 56.5 °F /  13.6 °C 30.17in /  1021.6hPa Calm     67% 0.00in /  0mm
20:08 67.6 °F /  19.8 °C 57.0 °F /  13.9 °C 30.17in /  1021.6hPa Calm     69% 0.00in /  0mm
20:13 67.5 °F /  19.7 °C 56.1 °F /  13.4 °C 30.18in /  1021.9hPa Calm     67% 0.00in /  0mm
20:18 67.3 °F /  19.6 °C 56.3 °F /  13.5 °C 30.18in /  1021.9hPa Calm     68% 0.00in /  0mm
20:23 67.1 °F /  19.5 °C 56.7 °F /  13.7 °C 30.18in /  1021.9hPa Calm     69% 0.00in /  0mm
20:28 66.9 °F /  19.4 °C 57.2 °F /  14 °C 30.18in /  1021.9hPa Calm     71% 0.00in /  0mm
20:33 66.6 °F /  19.2 °C 56.8 °F /  13.8 °C 30.18in /  1021.9hPa SSE 2.9mph /  4.7km/h 3.0mph /  4.8km/h 71% 0.00in /  0mm
20:38 66.4 °F /  19.1 °C 57.0 °F /  13.9 °C 30.18in /  1021.9hPa SE 2.0mph /  3.2km/h 3.0mph /  4.8km/h 72% 0.00in /  0mm
20:43 66.0 °F /  18.9 °C 57.2 °F /  14 °C 30.19in /  1022.2hPa SSE 0.9mph /  1.4km/h 2.0mph /  3.2km/h 73% 0.00in /  0mm
20:48 65.7 °F /  18.7 °C 57.2 °F /  14 °C 30.19in /  1022.2hPa Calm     74% 0.00in /  0mm
20:53 65.1 °F /  18.4 °C 57.0 °F /  13.9 °C 30.19in /  1022.2hPa Calm     75% 0.00in /  0mm
20:58 64.8 °F /  18.2 °C 57.0 °F /  13.9 °C 30.19in /  1022.2hPa Calm     76% 0.00in /  0mm
21:03 64.2 °F /  17.9 °C 56.8 °F /  13.8 °C 30.19in /  1022.2hPa Calm     77% 0.00in /  0mm
21:08 63.7 °F /  17.6 °C 56.7 °F /  13.7 °C 30.19in /  1022.2hPa Calm     78% 0.00in /  0mm
21:13 63.3 °F /  17.4 °C 56.7 °F /  13.7 °C 30.19in /  1022.2hPa Calm     79% 0.00in /  0mm
21:18 63.0 °F /  17.2 °C 56.7 °F /  13.7 °C 30.20in /  1022.6hPa Calm     80% 0.00in /  0mm
21:23 62.8 °F /  17.1 °C 56.8 °F /  13.8 °C 30.20in /  1022.6hPa Calm     81% 0.00in /  0mm
21:28 62.4 °F /  16.9 °C 56.8 °F /  13.8 °C 30.20in /  1022.6hPa Calm     82% 0.00in /  0mm
21:33 62.2 °F /  16.8 °C 57.0 °F /  13.9 °C 30.20in /  1022.6hPa Calm     83% 0.00in /  0mm
21:38 62.1 °F /  16.7 °C 56.8 °F /  13.8 °C 30.20in /  1022.6hPa Calm     83% 0.00in /  0mm
21:43 61.7 °F /  16.5 °C 56.8 °F /  13.8 °C 30.20in /  1022.6hPa Calm     84% 0.00in /  0mm
21:48 61.5 °F /  16.4 °C 57.0 °F /  13.9 °C 30.21in /  1022.9hPa Calm     85% 0.00in /  0mm
21:53 61.3 °F /  16.3 °C 56.8 °F /  13.8 °C 30.20in /  1022.6hPa Calm     85% 0.00in /  0mm
21:58 61.0 °F /  16.1 °C 56.8 °F /  13.8 °C 30.20in /  1022.6hPa Calm     86% 0.00in /  0mm
22:03 60.6 °F /  15.9 °C 56.5 °F /  13.6 °C 30.21in /  1022.9hPa Calm     86% 0.00in /  0mm
22:08 60.6 °F /  15.9 °C 56.7 °F /  13.7 °C 30.21in /  1022.9hPa Calm     87% 0.00in /  0mm
22:13 60.4 °F /  15.8 °C 56.5 °F /  13.6 °C 30.21in /  1022.9hPa Calm     87% 0.00in /  0mm
22:18 60.3 °F /  15.7 °C 56.3 °F /  13.5 °C 30.21in /  1022.9hPa Calm     87% 0.00in /  0mm
22:24 60.1 °F /  15.6 °C 56.5 °F /  13.6 °C 30.21in /  1022.9hPa Calm     88% 0.00in /  0mm
22:29 59.9 °F /  15.5 °C 56.7 °F /  13.7 °C 30.21in /  1022.9hPa Calm     89% 0.00in /  0mm
22:34 59.5 °F /  15.3 °C 56.3 °F /  13.5 °C 30.21in /  1022.9hPa Calm     89% 0.00in /  0mm
22:39 59.5 °F /  15.3 °C 56.8 °F /  13.8 °C 30.21in /  1022.9hPa Calm     91% 0.00in /  0mm
22:44 59.5 °F /  15.3 °C 56.3 °F /  13.5 °C 30.22in /  1023.2hPa Calm     89% 0.00in /  0mm
22:49 59.5 °F /  15.3 °C 56.3 °F /  13.5 °C 30.22in /  1023.2hPa Calm     89% 0.00in /  0mm
22:54 59.5 °F /  15.3 °C 56.3 °F /  13.5 °C 30.22in /  1023.2hPa Calm     89% 0.00in /  0mm
22:59 59.4 °F /  15.2 °C 56.5 °F /  13.6 °C 30.22in /  1023.2hPa Calm     90% 0.00in /  0mm
23:04 59.4 °F /  15.2 °C 56.5 °F /  13.6 °C 30.22in /  1023.2hPa Calm     90% 0.00in /  0mm
23:09 59.2 °F /  15.1 °C 56.3 °F /  13.5 °C 30.22in /  1023.2hPa Calm     90% 0.00in /  0mm
23:14 59.2 °F /  15.1 °C 56.5 °F /  13.6 °C 30.22in /  1023.2hPa Calm     91% 0.00in /  0mm
23:24 59.0 °F /  15 °C 56.1 °F /  13.4 °C 30.22in /  1023.2hPa Calm     90% 0.00in /  0mm
23:29 58.8 °F /  14.9 °C 56.1 °F /  13.4 °C 30.23in /  1023.6hPa Calm     91% 0.00in /  0mm
23:34 58.8 °F /  14.9 °C 56.1 °F /  13.4 °C 30.23in /  1023.6hPa Calm     91% 0.00in /  0mm
23:39 58.8 °F /  14.9 °C 56.1 °F /  13.4 °C 30.23in /  1023.6hPa Calm     91% 0.00in /  0mm
23:44 58.8 °F /  14.9 °C 56.1 °F /  13.4 °C 30.23in /  1023.6hPa Calm     91% 0.00in /  0mm
23:49 58.6 °F /  14.8 °C 55.9 °F /  13.3 °C 30.23in /  1023.6hPa Calm     91% 0.00in /  0mm
23:54 58.5 °F /  14.7 °C 56.1 °F /  13.4 °C 30.23in /  1023.6hPa Calm     92% 0.00in /  0mm
23:59 58.5 °F /  14.7 °C 56.1 °F /  13.4 °C 30.23in /  1023.6hPa Calm     92% 0.00in /  0mm
WheeWeather.com
Compliments of Weather Underground - 3.75 mb